sensor_id;sensor_type;location;lat;lon;timestamp;pressure;altitude;pressure_sealevel;temperature;humidity
76847;BME280;65813;49.546;8.644;2022-12-29T05:19:15;99918.75;;;11.09;69.33
76847;BME280;65813;49.546;8.644;2022-12-29T05:23:16;99910.53;;;11.01;69.46
76847;BME280;65813;49.546;8.644;2022-12-29T05:27:17;99926.22;;;11.15;68.73
76847;BME280;65813;49.546;8.644;2022-12-29T05:31:17;99928.38;;;11.22;68.88
76847;BME280;65813;49.546;8.644;2022-12-29T05:35:17;99924.53;;;11.14;68.85
76847;BME280;65813;49.546;8.644;2022-12-29T05:39:18;99921.16;;;11.12;68.80
76847;BME280;65813;49.546;8.644;2022-12-29T05:43:18;99918.00;;;11.07;68.81
76847;BME280;65813;49.546;8.644;2022-12-29T05:47:18;99911.25;;;11.03;69.09
76847;BME280;65813;49.546;8.644;2022-12-29T05:51:19;99907.66;;;10.93;69.58
76847;BME280;65813;49.546;8.644;2022-12-29T05:55:19;99897.81;;;11.05;69.39
76847;BME280;65813;49.546;8.644;2022-12-29T05:59:20;99930.59;;;11.17;68.65
76847;BME280;65813;49.546;8.644;2022-12-29T06:03:20;99906.38;;;11.08;69.16
76847;BME280;65813;49.546;8.644;2022-12-29T06:07:20;99906.13;;;11.11;69.09
76847;BME280;65813;49.546;8.644;2022-12-29T06:11:21;99911.72;;;11.08;68.92
76847;BME280;65813;49.546;8.644;2022-12-29T06:15:21;99900.97;;;10.99;69.19
76847;BME280;65813;49.546;8.644;2022-12-29T06:19:22;99895.25;;;11.03;69.56
76847;BME280;65813;49.546;8.644;2022-12-29T06:23:22;99891.16;;;10.99;69.55
76847;BME280;65813;49.546;8.644;2022-12-29T06:27:22;99892.00;;;11.00;69.43
76847;BME280;65813;49.546;8.644;2022-12-29T06:31:23;99891.66;;;10.93;70.09
76847;BME280;65813;49.546;8.644;2022-12-29T06:35:23;99885.25;;;10.96;69.83
76847;BME280;65813;49.546;8.644;2022-12-29T06:39:23;99892.91;;;10.89;70.06
76847;BME280;65813;49.546;8.644;2022-12-29T06:43:24;99886.97;;;10.86;70.11
76847;BME280;65813;49.546;8.644;2022-12-29T06:47:24;99885.78;;;10.79;70.16
76847;BME280;65813;49.546;8.644;2022-12-29T06:51:25;99894.38;;;10.82;69.50
76847;BME280;65813;49.546;8.644;2022-12-29T06:55:25;99896.53;;;10.88;69.19
76847;BME280;65813;49.546;8.644;2022-12-29T06:59:26;99878.13;;;10.85;68.73
76847;BME280;65813;49.546;8.644;2022-12-29T07:03:26;99878.59;;;10.90;68.54
76847;BME280;65813;49.546;8.644;2022-12-29T07:07:26;99877.50;;;10.93;68.61
76847;BME280;65813;49.546;8.644;2022-12-29T07:11:27;99879.78;;;10.97;67.73
76847;BME280;65813;49.546;8.644;2022-12-29T07:15:27;99892.09;;;11.09;66.88
76847;BME280;65813;49.546;8.644;2022-12-29T07:19:27;99891.09;;;11.10;66.79
76847;BME280;65813;49.546;8.644;2022-12-29T07:23:28;99883.94;;;11.11;66.97
76847;BME280;65813;49.546;8.644;2022-12-29T07:27:28;99886.25;;;11.15;66.60
76847;BME280;65813;49.546;8.644;2022-12-29T07:31:28;99887.94;;;11.17;66.36
76847;BME280;65813;49.546;8.644;2022-12-29T07:35:29;99888.19;;;11.13;66.85
76847;BME280;65813;49.546;8.644;2022-12-29T07:39:29;99892.75;;;11.23;66.57
76847;BME280;65813;49.546;8.644;2022-12-29T07:43:30;99902.47;;;11.24;66.46
76847;BME280;65813;49.546;8.644;2022-12-29T07:47:30;99903.41;;;11.23;66.01
76847;BME280;65813;49.546;8.644;2022-12-29T07:51:30;99898.94;;;11.23;66.19
76847;BME280;65813;49.546;8.644;2022-12-29T07:55:32;99909.44;;;11.25;66.17
76847;BME280;65813;49.546;8.644;2022-12-29T07:59:32;99911.53;;;11.21;66.82
76847;BME280;65813;49.546;8.644;2022-12-29T08:03:33;99916.97;;;11.31;66.06
76847;BME280;65813;49.546;8.644;2022-12-29T08:07:33;99918.91;;;11.29;66.41
76847;BME280;65813;49.546;8.644;2022-12-29T08:11:33;99927.25;;;11.24;66.50
76847;BME280;65813;49.546;8.644;2022-12-29T08:15:34;99928.84;;;11.27;66.41
76847;BME280;65813;49.546;8.644;2022-12-29T08:19:34;99933.72;;;11.22;66.80
76847;BME280;65813;49.546;8.644;2022-12-29T08:23:34;99948.22;;;11.29;66.60
76847;BME280;65813;49.546;8.644;2022-12-29T08:27:34;99955.25;;;11.30;65.89
76847;BME280;65813;49.546;8.644;2022-12-29T08:31:35;99949.06;;;11.29;66.34
76847;BME280;65813;49.546;8.644;2022-12-29T08:35:35;99954.03;;;11.34;65.92
76847;BME280;65813;49.546;8.644;2022-12-29T08:39:36;99958.25;;;11.36;66.03
76847;BME280;65813;49.546;8.644;2022-12-29T08:43:36;99955.38;;;11.28;66.62
76847;BME280;65813;49.546;8.644;2022-12-29T08:47:36;99970.16;;;11.32;67.04
76847;BME280;65813;49.546;8.644;2022-12-29T08:51:37;99960.13;;;11.25;67.15
76847;BME280;65813;49.546;8.644;2022-12-29T08:55:37;99971.72;;;11.35;67.08
76847;BME280;65813;49.546;8.644;2022-12-29T08:59:37;99965.41;;;11.36;66.83
76847;BME280;65813;49.546;8.644;2022-12-29T09:03:38;99965.03;;;11.40;66.12
76847;BME280;65813;49.546;8.644;2022-12-29T09:07:38;99959.97;;;11.37;66.32
76847;BME280;65813;49.546;8.644;2022-12-29T09:11:39;99969.50;;;11.40;66.66
76847;BME280;65813;49.546;8.644;2022-12-29T09:15:39;99970.47;;;11.39;66.78
76847;BME280;65813;49.546;8.644;2022-12-29T09:19:40;99973.28;;;11.37;66.60
76847;BME280;65813;49.546;8.644;2022-12-29T09:23:40;99979.97;;;11.32;67.21
76847;BME280;65813;49.546;8.644;2022-12-29T09:27:41;99981.53;;;11.34;66.69
76847;BME280;65813;49.546;8.644;2022-12-29T09:31:41;99981.53;;;11.34;67.28
76847;BME280;65813;49.546;8.644;2022-12-29T09:35:43;99987.00;;;11.33;67.06
76847;BME280;65813;49.546;8.644;2022-12-29T09:39:43;99989.16;;;11.39;67.33
76847;BME280;65813;49.546;8.644;2022-12-29T09:44:03;99989.94;;;11.30;67.80
76847;BME280;65813;49.546;8.644;2022-12-29T09:48:16;100007.72;;;11.72;66.49
76847;BME280;65813;49.546;8.644;2022-12-29T09:52:19;100008.00;;;11.58;67.67
76847;BME280;65813;49.546;8.644;2022-12-29T09:56:22;100013.88;;;11.73;67.00
76847;BME280;65813;49.546;8.644;2022-12-29T10:01:05;100020.72;;;11.86;67.20
76847;BME280;65813;49.546;8.644;2022-12-29T10:05:35;100020.13;;;11.83;67.27
76847;BME280;65813;49.546;8.644;2022-12-29T10:23:33;100027.91;;;11.86;68.03
76847;BME280;65813;49.546;8.644;2022-12-29T10:27:35;100027.56;;;11.79;68.34
76847;BME280;65813;49.546;8.644;2022-12-29T10:31:40;100036.25;;;11.92;68.09
76847;BME280;65813;49.546;8.644;2022-12-29T10:35:42;100028.03;;;11.84;68.13
76847;BME280;65813;49.546;8.644;2022-12-29T10:39:50;100022.22;;;12.00;67.41
76847;BME280;65813;49.546;8.644;2022-12-29T10:43:53;100010.91;;;11.87;68.11
76847;BME280;65813;49.546;8.644;2022-12-29T10:48:09;100017.56;;;12.13;66.96
76847;BME280;65813;49.546;8.644;2022-12-29T10:52:16;100013.06;;;11.93;68.21
76847;BME280;65813;49.546;8.644;2022-12-29T10:56:27;100016.44;;;12.15;66.66
76847;BME280;65813;49.546;8.644;2022-12-29T11:00:29;100007.59;;;11.94;67.42
76847;BME280;65813;49.546;8.644;2022-12-29T11:04:55;100013.84;;;12.04;67.36
76847;BME280;65813;49.546;8.644;2022-12-29T11:09:13;100023.31;;;12.18;66.72
76847;BME280;65813;49.546;8.644;2022-12-29T11:13:18;100013.28;;;12.10;67.24
76847;BME280;65813;49.546;8.644;2022-12-29T11:17:24;100021.16;;;12.33;68.39
76847;BME280;65813;49.546;8.644;2022-12-29T11:21:35;100020.59;;;12.08;70.57
76847;BME280;65813;49.546;8.644;2022-12-29T11:25:40;100026.97;;;11.96;70.44
76847;BME280;65813;49.546;8.644;2022-12-29T11:29:43;100014.94;;;12.02;69.14
76847;BME280;65813;49.546;8.644;2022-12-29T11:33:44;100031.97;;;12.10;69.71
76847;BME280;65813;49.546;8.644;2022-12-29T11:37:44;100042.22;;;12.05;69.40
76847;BME280;65813;49.546;8.644;2022-12-29T11:41:51;100033.34;;;12.26;69.19
76847;BME280;65813;49.546;8.644;2022-12-29T11:45:53;100032.28;;;12.38;68.12
76847;BME280;65813;49.546;8.644;2022-12-29T11:49:57;100026.78;;;12.09;67.43
76847;BME280;65813;49.546;8.644;2022-12-29T11:54:02;100027.25;;;11.93;66.97
76847;BME280;65813;49.546;8.644;2022-12-29T11:58:03;100023.22;;;11.99;66.99
76847;BME280;65813;49.546;8.644;2022-12-29T12:02:30;100028.72;;;11.86;66.94
76847;BME280;65813;49.546;8.644;2022-12-29T12:06:37;100034.31;;;11.83;66.24
76847;BME280;65813;49.546;8.644;2022-12-29T12:10:46;100019.09;;;11.74;66.63
76847;BME280;65813;49.546;8.644;2022-12-29T12:14:55;100035.13;;;11.74;66.83
76847;BME280;65813;49.546;8.644;2022-12-29T12:27:53;100038.09;;;11.81;67.13
76847;BME280;65813;49.546;8.644;2022-12-29T12:32:13;100040.41;;;11.85;66.05
76847;BME280;65813;49.546;8.644;2022-12-29T12:36:31;100031.66;;;11.83;66.12
76847;BME280;65813;49.546;8.644;2022-12-29T12:49:20;100030.22;;;11.79;63.97
76847;BME280;65813;49.546;8.644;2022-12-29T12:58:12;100028.44;;;11.69;66.19
76847;BME280;65813;49.546;8.644;2022-12-29T13:15:42;100011.31;;;11.82;67.47
76847;BME280;65813;49.546;8.644;2022-12-29T13:19:57;100011.53;;;11.79;67.87
76847;BME280;65813;49.546;8.644;2022-12-29T13:24:18;100018.47;;;11.82;68.13
76847;BME280;65813;49.546;8.644;2022-12-29T13:28:29;100009.78;;;11.69;67.01
76847;BME280;65813;49.546;8.644;2022-12-29T13:36:37;100014.09;;;11.70;66.12
76847;BME280;65813;49.546;8.644;2022-12-29T13:40:48;100008.19;;;11.66;65.96
76847;BME280;65813;49.546;8.644;2022-12-29T13:45:06;100001.75;;;11.69;65.35
76847;BME280;65813;49.546;8.644;2022-12-29T13:49:22;100015.75;;;11.61;65.62
76847;BME280;65813;49.546;8.644;2022-12-29T13:53:33;100001.75;;;11.48;66.53
76847;BME280;65813;49.546;8.644;2022-12-29T13:57:53;100014.47;;;11.44;66.41
76847;BME280;65813;49.546;8.644;2022-12-29T14:02:07;100019.59;;;11.36;67.45
76847;BME280;65813;49.546;8.644;2022-12-29T14:06:15;100032.25;;;11.23;68.45
76847;BME280;65813;49.546;8.644;2022-12-29T14:14:30;100033.97;;;11.02;69.58
76847;BME280;65813;49.546;8.644;2022-12-29T14:18:33;100039.81;;;10.96;69.67
76847;BME280;65813;49.546;8.644;2022-12-29T14:22:34;100046.97;;;10.84;70.26
76847;BME280;65813;49.546;8.644;2022-12-29T14:26:35;100059.44;;;10.73;71.40
76847;BME280;65813;49.546;8.644;2022-12-29T14:30:54;100069.47;;;10.69;71.74
76847;BME280;65813;49.546;8.644;2022-12-29T14:34:56;100058.84;;;10.58;71.58
76847;BME280;65813;49.546;8.644;2022-12-29T14:38:57;100056.28;;;10.45;72.00
76847;BME280;65813;49.546;8.644;2022-12-29T14:42:57;100074.81;;;10.47;71.78
76847;BME280;65813;49.546;8.644;2022-12-29T14:47:00;100080.38;;;10.44;71.88
76847;BME280;65813;49.546;8.644;2022-12-29T14:51:33;100061.38;;;10.37;72.56
76847;BME280;65813;49.546;8.644;2022-12-29T14:59:43;100080.91;;;10.14;74.19
76847;BME280;65813;49.546;8.644;2022-12-29T15:03:45;100075.69;;;10.12;75.27
76847;BME280;65813;49.546;8.644;2022-12-29T15:07:47;100081.06;;;10.00;74.79
76847;BME280;65813;49.546;8.644;2022-12-29T15:11:51;100088.00;;;10.02;74.26
76847;BME280;65813;49.546;8.644;2022-12-29T15:15:52;100082.44;;;10.05;74.03
76847;BME280;65813;49.546;8.644;2022-12-29T15:19:53;100084.22;;;9.94;75.06
76847;BME280;65813;49.546;8.644;2022-12-29T15:23:55;100073.66;;;9.81;77.24
76847;BME280;65813;49.546;8.644;2022-12-29T15:28:04;100068.91;;;9.74;77.64
76847;BME280;65813;49.546;8.644;2022-12-29T15:32:26;100086.41;;;9.65;78.48
76847;BME280;65813;49.546;8.644;2022-12-29T15:36:29;100099.47;;;9.68;78.62
76847;BME280;65813;49.546;8.644;2022-12-29T15:40:31;100104.84;;;9.55;79.48
76847;BME280;65813;49.546;8.644;2022-12-29T15:44:40;100109.25;;;9.44;79.97
76847;BME280;65813;49.546;8.644;2022-12-29T15:48:41;100131.41;;;9.32;80.20
76847;BME280;65813;49.546;8.644;2022-12-29T15:52:42;100128.88;;;9.30;80.63
76847;BME280;65813;49.546;8.644;2022-12-29T15:56:42;100139.38;;;9.32;80.56
76847;BME280;65813;49.546;8.644;2022-12-29T16:00:50;100136.44;;;9.24;81.11
76847;BME280;65813;49.546;8.644;2022-12-29T16:04:53;100134.44;;;9.14;82.07
76847;BME280;65813;49.546;8.644;2022-12-29T16:09:05;100137.41;;;9.23;81.26
76847;BME280;65813;49.546;8.644;2022-12-29T16:13:19;100143.66;;;9.22;81.93
76847;BME280;65813;49.546;8.644;2022-12-29T16:17:24;100156.22;;;9.20;82.07
76847;BME280;65813;49.546;8.644;2022-12-29T16:21:33;100149.41;;;9.16;81.99
76847;BME280;65813;49.546;8.644;2022-12-29T16:25:34;100166.00;;;9.19;82.15
76847;BME280;65813;49.546;8.644;2022-12-29T16:29:37;100155.25;;;9.21;81.52
76847;BME280;65813;49.546;8.644;2022-12-29T16:33:47;100167.97;;;9.41;80.72
76847;BME280;65813;49.546;8.644;2022-12-29T16:46:57;100163.78;;;9.49;80.40
76847;BME280;65813;49.546;8.644;2022-12-29T16:51:04;100160.72;;;9.43;80.87
76847;BME280;65813;49.546;8.644;2022-12-29T16:55:05;100179.41;;;9.54;80.54
76847;BME280;65813;49.546;8.644;2022-12-29T16:59:09;100189.53;;;9.49;80.36
76847;BME280;65813;49.546;8.644;2022-12-29T17:03:17;100192.31;;;9.47;80.43
76847;BME280;65813;49.546;8.644;2022-12-29T17:07:26;100186.47;;;9.42;80.40
76847;BME280;65813;49.546;8.644;2022-12-29T17:11:32;100191.16;;;9.39;80.17
76847;BME280;65813;49.546;8.644;2022-12-29T17:15:51;100199.31;;;9.48;80.44
76847;BME280;65813;49.546;8.644;2022-12-29T17:19:54;100199.44;;;9.47;79.99
76847;BME280;65813;49.546;8.644;2022-12-29T17:23:55;100198.91;;;9.42;80.85
76847;BME280;65813;49.546;8.644;2022-12-29T17:27:58;100201.41;;;9.56;80.14
76847;BME280;65813;49.546;8.644;2022-12-29T17:32:01;100199.22;;;9.50;80.22
76847;BME280;65813;49.546;8.644;2022-12-29T17:36:03;100189.53;;;9.49;80.75
76847;BME280;65813;49.546;8.644;2022-12-29T17:40:05;100176.28;;;9.36;82.00
76847;BME280;65813;49.546;8.644;2022-12-29T17:44:08;100171.28;;;9.32;82.45
76847;BME280;65813;49.546;8.644;2022-12-29T17:48:15;100187.22;;;9.32;82.75
76847;BME280;65813;49.546;8.644;2022-12-29T17:52:16;100191.06;;;9.28;83.56
76847;BME280;65813;49.546;8.644;2022-12-29T17:56:17;100193.06;;;9.37;84.06
76847;BME280;65813;49.546;8.644;2022-12-29T18:00:20;100184.69;;;9.18;84.78
76847;BME280;65813;49.546;8.644;2022-12-29T18:04:21;100170.78;;;9.27;85.19
76847;BME280;65813;49.546;8.644;2022-12-29T18:08:21;100166.50;;;9.24;84.97
76847;BME280;65813;49.546;8.644;2022-12-29T18:12:37;100180.66;;;9.25;84.80
76847;BME280;65813;49.546;8.644;2022-12-29T18:16:38;100188.84;;;9.22;84.92
76847;BME280;65813;49.546;8.644;2022-12-29T18:20:40;100186.50;;;9.30;84.71
76847;BME280;65813;49.546;8.644;2022-12-29T18:24:42;100176.09;;;9.27;84.25
76847;BME280;65813;49.546;8.644;2022-12-29T18:28:44;100164.81;;;9.23;84.73
76847;BME280;65813;49.546;8.644;2022-12-29T18:32:48;100173.22;;;9.17;84.22
76847;BME280;65813;49.546;8.644;2022-12-29T18:36:48;100166.75;;;9.08;84.31
76847;BME280;65813;49.546;8.644;2022-12-29T18:40:48;100165.03;;;9.07;84.49
76847;BME280;65813;49.546;8.644;2022-12-29T18:44:49;100166.34;;;9.02;84.26
76847;BME280;65813;49.546;8.644;2022-12-29T18:48:50;100191.63;;;9.07;83.99
76847;BME280;65813;49.546;8.644;2022-12-29T18:52:51;100190.56;;;8.97;84.04
76847;BME280;65813;49.546;8.644;2022-12-29T18:56:52;100188.97;;;8.95;84.18
76847;BME280;65813;49.546;8.644;2022-12-29T19:00:52;100193.09;;;8.86;84.15
76847;BME280;65813;49.546;8.644;2022-12-29T19:04:53;100180.81;;;8.85;84.19
76847;BME280;65813;49.546;8.644;2022-12-29T19:08:55;100193.22;;;8.85;83.99
76847;BME280;65813;49.546;8.644;2022-12-29T19:12:56;100186.00;;;8.74;83.93
76847;BME280;65813;49.546;8.644;2022-12-29T19:16:56;100186.94;;;8.73;83.92
76847;BME280;65813;49.546;8.644;2022-12-29T19:20:56;100188.03;;;8.71;83.93
76847;BME280;65813;49.546;8.644;2022-12-29T19:24:57;100178.34;;;8.70;83.77
76847;BME280;65813;49.546;8.644;2022-12-29T19:28:58;100178.69;;;8.65;84.15
76847;BME280;65813;49.546;8.644;2022-12-29T19:32:59;100182.16;;;8.66;84.44
76847;BME280;65813;49.546;8.644;2022-12-29T19:36:59;100188.31;;;8.66;84.65
76847;BME280;65813;49.546;8.644;2022-12-29T19:40:59;100182.50;;;8.61;85.03
76847;BME280;65813;49.546;8.644;2022-12-29T19:45:00;100191.53;;;8.71;84.83
76847;BME280;65813;49.546;8.644;2022-12-29T19:49:02;100196.41;;;8.77;84.28
76847;BME280;65813;49.546;8.644;2022-12-29T19:53:02;100200.13;;;8.87;84.22
76847;BME280;65813;49.546;8.644;2022-12-29T19:57:03;100209.50;;;8.93;83.52
76847;BME280;65813;49.546;8.644;2022-12-29T20:01:07;100223.72;;;8.92;83.76
76847;BME280;65813;49.546;8.644;2022-12-29T20:05:09;100215.75;;;8.92;83.69
76847;BME280;65813;49.546;8.644;2022-12-29T20:09:10;100216.28;;;8.84;84.00
76847;BME280;65813;49.546;8.644;2022-12-29T20:13:11;100211.91;;;8.83;83.71
76847;BME280;65813;49.546;8.644;2022-12-29T20:17:13;100214.06;;;8.78;83.77
76847;BME280;65813;49.546;8.644;2022-12-29T20:21:17;100225.53;;;8.79;84.08
76847;BME280;65813;49.546;8.644;2022-12-29T20:25:18;100228.06;;;8.68;84.26
76847;BME280;65813;49.546;8.644;2022-12-29T20:29:19;100253.25;;;8.75;84.14
76847;BME280;65813;49.546;8.644;2022-12-29T20:33:19;100237.09;;;8.65;84.13
76847;BME280;65813;49.546;8.644;2022-12-29T20:37:20;100249.53;;;8.65;84.77
76847;BME280;65813;49.546;8.644;2022-12-29T20:41:21;100252.56;;;8.58;85.09
76847;BME280;65813;49.546;8.644;2022-12-29T20:45:22;100256.63;;;8.64;84.89
76847;BME280;65813;49.546;8.644;2022-12-29T20:49:23;100262.03;;;8.62;85.20
76847;BME280;65813;49.546;8.644;2022-12-29T20:53:27;100268.75;;;8.68;84.99
76847;BME280;65813;49.546;8.644;2022-12-29T20:57:28;100265.84;;;8.58;84.90
76847;BME280;65813;49.546;8.644;2022-12-29T21:01:29;100256.94;;;8.59;84.96
76847;BME280;65813;49.546;8.644;2022-12-29T21:05:29;100255.34;;;8.57;84.96
76847;BME280;65813;49.546;8.644;2022-12-29T21:09:30;100252.38;;;8.61;85.08
76847;BME280;65813;49.546;8.644;2022-12-29T21:13:31;100264.91;;;8.59;85.21
76847;BME280;65813;49.546;8.644;2022-12-29T21:17:31;100255.13;;;8.47;85.86
76847;BME280;65813;49.546;8.644;2022-12-29T21:21:32;100259.06;;;8.54;85.83
76847;BME280;65813;49.546;8.644;2022-12-29T21:25:33;100263.09;;;8.60;85.61
76847;BME280;65813;49.546;8.644;2022-12-29T21:29:37;100267.75;;;8.56;85.94
76847;BME280;65813;49.546;8.644;2022-12-29T21:33:37;100283.03;;;8.53;86.29
76847;BME280;65813;49.546;8.644;2022-12-29T21:37:37;100283.34;;;8.48;85.88
76847;BME280;65813;49.546;8.644;2022-12-29T21:41:39;100285.34;;;8.45;86.43
76847;BME280;65813;49.546;8.644;2022-12-29T21:45:39;100299.38;;;8.47;86.41
76847;BME280;65813;49.546;8.644;2022-12-29T21:49:39;100293.72;;;8.39;86.53
76847;BME280;65813;49.546;8.644;2022-12-29T21:53:42;100303.81;;;8.34;86.68
76847;BME280;65813;49.546;8.644;2022-12-29T21:57:43;100312.72;;;8.33;86.84
76847;BME280;65813;49.546;8.644;2022-12-29T22:02:03;100321.31;;;8.36;86.51
76847;BME280;65813;49.546;8.644;2022-12-29T22:06:22;100332.03;;;8.35;86.55
76847;BME280;65813;49.546;8.644;2022-12-29T22:10:43;100332.47;;;8.41;86.36
76847;BME280;65813;49.546;8.644;2022-12-29T22:15:03;100336.59;;;8.33;86.28
76847;BME280;65813;49.546;8.644;2022-12-29T23:29:56;100415.19;;;7.93;86.71
76847;BME280;65813;49.546;8.644;2022-12-29T23:33:57;100423.97;;;7.93;87.07
76847;BME280;65813;49.546;8.644;2022-12-29T23:37:58;100424.06;;;7.92;87.23
76847;BME280;65813;49.546;8.644;2022-12-29T23:41:58;100420.56;;;7.91;87.25
76847;BME280;65813;49.546;8.644;2022-12-29T23:46:10;100425.00;;;7.77;87.65
76847;BME280;65813;49.546;8.644;2022-12-29T23:50:11;100439.59;;;7.70;87.98
76847;BME280;65813;49.546;8.644;2022-12-29T23:54:11;100444.66;;;7.58;88.00
76847;BME280;65813;49.546;8.644;2022-12-29T23:58:11;100446.84;;;7.52;88.29
